sensor_id;sensor_type;location;lat;lon;timestamp;pressure;altitude;pressure_sealevel;temperature;humidity
27425;BME280;15244;49.088;11.886;2023-05-24T00:04:43;95961.66;;;17.79;47.84
27425;BME280;15244;49.088;11.886;2023-05-24T00:09:45;95960.69;;;17.69;47.75
27425;BME280;15244;49.088;11.886;2023-05-24T00:14:47;95959.97;;;17.45;48.14
27425;BME280;15244;49.088;11.886;2023-05-24T00:19:49;95958.75;;;17.26;48.35
27425;BME280;15244;49.088;11.886;2023-05-24T00:24:51;95963.19;;;17.20;48.42
27425;BME280;15244;49.088;11.886;2023-05-24T00:29:52;95967.91;;;16.96;48.57
27425;BME280;15244;49.088;11.886;2023-05-24T00:34:55;95964.16;;;16.86;48.43
27425;BME280;15244;49.088;11.886;2023-05-24T00:39:56;95962.97;;;16.87;48.08
27425;BME280;15244;49.088;11.886;2023-05-24T00:44:58;95964.09;;;16.90;47.77
27425;BME280;15244;49.088;11.886;2023-05-24T00:49:59;95975.78;;;16.98;47.33
27425;BME280;15244;49.088;11.886;2023-05-24T00:55:02;95962.38;;;17.00;46.92
27425;BME280;15244;49.088;11.886;2023-05-24T01:00:04;95959.25;;;16.98;46.46
27425;BME280;15244;49.088;11.886;2023-05-24T01:05:06;95962.00;;;16.98;46.47
27425;BME280;15244;49.088;11.886;2023-05-24T01:10:31;95956.84;;;17.00;46.25
27425;BME280;15244;49.088;11.886;2023-05-24T01:20:51;95962.56;;;16.89;45.91
27425;BME280;15244;49.088;11.886;2023-05-24T01:26:07;95961.06;;;16.84;45.76
27425;BME280;15244;49.088;11.886;2023-05-24T01:31:15;95967.84;;;16.76;45.98
27425;BME280;15244;49.088;11.886;2023-05-24T01:36:17;95957.72;;;16.69;45.85
27425;BME280;15244;49.088;11.886;2023-05-24T01:46:39;95950.16;;;16.50;45.86
27425;BME280;15244;49.088;11.886;2023-05-24T01:52:01;95954.22;;;16.42;45.79
27425;BME280;15244;49.088;11.886;2023-05-24T01:57:06;95958.63;;;16.36;45.93
27425;BME280;15244;49.088;11.886;2023-05-24T02:02:10;95954.56;;;16.17;46.11
27425;BME280;15244;49.088;11.886;2023-05-24T02:07:11;95954.25;;;16.11;46.26
27425;BME280;15244;49.088;11.886;2023-05-24T02:12:13;95965.25;;;16.11;46.16
27425;BME280;15244;49.088;11.886;2023-05-24T02:17:16;95975.53;;;16.07;46.24
27425;BME280;15244;49.088;11.886;2023-05-24T02:22:18;95968.63;;;15.95;46.09
27425;BME280;15244;49.088;11.886;2023-05-24T02:27:22;95965.91;;;15.92;46.31
27425;BME280;15244;49.088;11.886;2023-05-24T02:32:24;95971.78;;;15.94;46.27
27425;BME280;15244;49.088;11.886;2023-05-24T02:37:26;95965.13;;;15.91;46.27
27425;BME280;15244;49.088;11.886;2023-05-24T02:42:28;95963.91;;;15.92;46.23
27425;BME280;15244;49.088;11.886;2023-05-24T02:47:29;95972.59;;;15.91;46.27
27425;BME280;15244;49.088;11.886;2023-05-24T02:52:31;95971.41;;;15.92;46.13
27425;BME280;15244;49.088;11.886;2023-05-24T02:57:33;95959.78;;;15.77;46.48
27425;BME280;15244;49.088;11.886;2023-05-24T03:02:34;95965.34;;;15.73;46.25
27425;BME280;15244;49.088;11.886;2023-05-24T03:07:39;95965.75;;;15.72;46.29
27425;BME280;15244;49.088;11.886;2023-05-24T03:12:41;95977.53;;;15.69;46.12
27425;BME280;15244;49.088;11.886;2023-05-24T03:17:43;95980.69;;;15.67;46.00
27425;BME280;15244;49.088;11.886;2023-05-24T03:22:45;95983.50;;;15.64;45.56
27425;BME280;15244;49.088;11.886;2023-05-24T03:27:46;95984.69;;;15.63;45.62
27425;BME280;15244;49.088;11.886;2023-05-24T03:32:48;95985.09;;;15.61;45.35
27425;BME280;15244;49.088;11.886;2023-05-24T03:37:50;95987.47;;;15.59;45.02
27425;BME280;15244;49.088;11.886;2023-05-24T03:42:54;95991.84;;;15.53;45.25
27425;BME280;15244;49.088;11.886;2023-05-24T03:48:06;95982.09;;;15.48;45.42
27425;BME280;15244;49.088;11.886;2023-05-24T03:53:08;95987.97;;;15.50;45.33
27425;BME280;15244;49.088;11.886;2023-05-24T03:58:09;95984.00;;;15.51;45.65
27425;BME280;15244;49.088;11.886;2023-05-24T04:03:11;95986.00;;;15.51;45.41
27425;BME280;15244;49.088;11.886;2023-05-24T04:08:13;95986.38;;;15.53;45.46
27425;BME280;15244;49.088;11.886;2023-05-24T04:13:15;95988.34;;;15.52;45.38
27425;BME280;15244;49.088;11.886;2023-05-24T04:18:17;95989.50;;;15.51;45.55
27425;BME280;15244;49.088;11.886;2023-05-24T04:23:18;95981.63;;;15.53;45.63
27425;BME280;15244;49.088;11.886;2023-05-24T04:28:20;95980.03;;;15.56;45.53
27425;BME280;15244;49.088;11.886;2023-05-24T04:33:22;95992.13;;;15.62;45.75
27425;BME280;15244;49.088;11.886;2023-05-24T04:38:24;95983.44;;;15.67;45.69
27425;BME280;15244;49.088;11.886;2023-05-24T04:43:25;95989.25;;;15.76;45.63
27425;BME280;15244;49.088;11.886;2023-05-24T04:48:27;95993.59;;;15.74;45.21
27425;BME280;15244;49.088;11.886;2023-05-24T04:53:29;95986.97;;;15.71;45.35
27425;BME280;15244;49.088;11.886;2023-05-24T04:58:30;95989.38;;;15.66;45.14
27425;BME280;15244;49.088;11.886;2023-05-24T05:03:33;95980.00;;;15.59;45.05
27425;BME280;15244;49.088;11.886;2023-05-24T05:08:35;95983.44;;;15.67;45.20
27425;BME280;15244;49.088;11.886;2023-05-24T05:13:37;95982.59;;;15.77;45.16
27425;BME280;15244;49.088;11.886;2023-05-24T05:18:38;95992.38;;;15.78;44.94
27425;BME280;15244;49.088;11.886;2023-05-24T05:23:41;95995.97;;;15.72;44.85
27425;BME280;15244;49.088;11.886;2023-05-24T05:28:43;95999.88;;;15.74;45.13
27425;BME280;15244;49.088;11.886;2023-05-24T05:33:45;95996.72;;;15.76;44.82
27425;BME280;15244;49.088;11.886;2023-05-24T05:38:46;95996.34;;;15.74;44.78
27425;BME280;15244;49.088;11.886;2023-05-24T05:43:48;95988.59;;;15.65;44.99
27425;BME280;15244;49.088;11.886;2023-05-24T05:48:50;95985.03;;;15.65;44.85
27425;BME280;15244;49.088;11.886;2023-05-24T05:53:52;95985.38;;;15.74;45.19
27425;BME280;15244;49.088;11.886;2023-05-24T05:58:53;95988.34;;;15.87;45.06
27425;BME280;15244;49.088;11.886;2023-05-24T06:03:55;95986.44;;;15.84;45.07
27425;BME280;15244;49.088;11.886;2023-05-24T06:08:57;95988.13;;;15.74;45.03
27425;BME280;15244;49.088;11.886;2023-05-24T06:13:59;95991.63;;;15.74;44.98
27425;BME280;15244;49.088;11.886;2023-05-24T06:19:01;95988.78;;;15.85;45.14
27425;BME280;15244;49.088;11.886;2023-05-24T06:24:07;95990.31;;;15.86;44.97
27425;BME280;15244;49.088;11.886;2023-05-24T06:29:10;95993.03;;;15.90;44.75
27425;BME280;15244;49.088;11.886;2023-05-24T06:34:12;96000.47;;;15.93;44.71
27425;BME280;15244;49.088;11.886;2023-05-24T06:39:14;95994.81;;;16.03;44.58
27425;BME280;15244;49.088;11.886;2023-05-24T06:44:16;95990.84;;;16.08;44.42
27425;BME280;15244;49.088;11.886;2023-05-24T06:49:18;95993.13;;;16.13;44.26
27425;BME280;15244;49.088;11.886;2023-05-24T06:54:20;96003.63;;;16.22;44.17
27425;BME280;15244;49.088;11.886;2023-05-24T06:59:22;96007.56;;;16.21;43.44
27425;BME280;15244;49.088;11.886;2023-05-24T07:04:23;96009.34;;;16.04;43.57
27425;BME280;15244;49.088;11.886;2023-05-24T07:09:29;96025.16;;;15.96;43.62
27425;BME280;15244;49.088;11.886;2023-05-24T07:14:30;96032.41;;;15.83;43.55
27425;BME280;15244;49.088;11.886;2023-05-24T07:19:32;96030.75;;;15.89;43.67
27425;BME280;15244;49.088;11.886;2023-05-24T07:24:36;96036.16;;;15.96;43.68
27425;BME280;15244;49.088;11.886;2023-05-24T07:29:37;96040.81;;;16.03;43.39
27425;BME280;15244;49.088;11.886;2023-05-24T07:34:39;96052.81;;;16.16;43.46
27425;BME280;15244;49.088;11.886;2023-05-24T07:39:42;96036.16;;;16.27;43.34
27425;BME280;15244;49.088;11.886;2023-05-24T07:44:43;96042.31;;;16.38;43.36
27425;BME280;15244;49.088;11.886;2023-05-24T07:49:45;96046.56;;;16.43;43.21
27425;BME280;15244;49.088;11.886;2023-05-24T07:54:47;96037.81;;;16.52;43.19
27425;BME280;15244;49.088;11.886;2023-05-24T07:59:49;96057.69;;;16.63;43.37
27425;BME280;15244;49.088;11.886;2023-05-24T08:04:50;96058.34;;;16.74;43.06
27425;BME280;15244;49.088;11.886;2023-05-24T08:09:52;96052.31;;;16.83;42.84
27425;BME280;15244;49.088;11.886;2023-05-24T08:14:55;96056.88;;;16.93;42.41
27425;BME280;15244;49.088;11.886;2023-05-24T08:19:57;96057.53;;;17.04;42.45
27425;BME280;15244;49.088;11.886;2023-05-24T08:24:58;96077.00;;;17.17;42.77
27425;BME280;15244;49.088;11.886;2023-05-24T08:30:00;96070.47;;;17.31;42.69
27425;BME280;15244;49.088;11.886;2023-05-24T08:35:02;96078.25;;;17.36;42.21
27425;BME280;15244;49.088;11.886;2023-05-24T08:40:21;96069.13;;;17.39;42.18
27425;BME280;15244;49.088;11.886;2023-05-24T08:45:29;96078.63;;;17.38;41.92
27425;BME280;15244;49.088;11.886;2023-05-24T08:50:32;96071.06;;;17.42;42.07
27425;BME280;15244;49.088;11.886;2023-05-24T08:55:33;96089.28;;;17.36;41.82
27425;BME280;15244;49.088;11.886;2023-05-24T09:00:36;96090.03;;;17.37;41.51
27425;BME280;15244;49.088;11.886;2023-05-24T09:05:39;96092.56;;;17.27;41.42
27425;BME280;15244;49.088;11.886;2023-05-24T09:10:43;96094.81;;;17.09;41.42
27425;BME280;15244;49.088;11.886;2023-05-24T09:15:58;96095.13;;;17.15;41.39
27425;BME280;15244;49.088;11.886;2023-05-24T09:21:00;96102.47;;;17.25;41.74
27425;BME280;15244;49.088;11.886;2023-05-24T09:26:08;96101.34;;;17.19;41.41
27425;BME280;15244;49.088;11.886;2023-05-24T09:31:10;96093.47;;;17.21;41.56
27425;BME280;15244;49.088;11.886;2023-05-24T09:36:15;96093.34;;;17.28;41.63
27425;BME280;15244;49.088;11.886;2023-05-24T09:41:19;96090.28;;;17.22;41.33
27425;BME280;15244;49.088;11.886;2023-05-24T09:46:20;96086.25;;;17.03;41.07
27425;BME280;15244;49.088;11.886;2023-05-24T09:51:22;96083.25;;;16.94;41.32
27425;BME280;15244;49.088;11.886;2023-05-24T09:56:25;96081.44;;;16.84;41.33
27425;BME280;15244;49.088;11.886;2023-05-24T10:01:27;96102.31;;;16.81;41.28
27425;BME280;15244;49.088;11.886;2023-05-24T10:06:29;96091.25;;;16.85;41.68
27425;BME280;15244;49.088;11.886;2023-05-24T10:11:35;96070.25;;;16.95;41.71
27425;BME280;15244;49.088;11.886;2023-05-24T10:16:37;96089.38;;;17.05;41.57
27425;BME280;15244;49.088;11.886;2023-05-24T10:21:40;96085.78;;;17.08;41.53
27425;BME280;15244;49.088;11.886;2023-05-24T10:26:42;96111.81;;;17.04;40.49
27425;BME280;15244;49.088;11.886;2023-05-24T10:31:47;96093.38;;;17.01;40.67
27425;BME280;15244;49.088;11.886;2023-05-24T10:36:50;96081.16;;;17.02;40.90
27425;BME280;15244;49.088;11.886;2023-05-24T10:41:55;96073.91;;;17.11;40.59
27425;BME280;15244;49.088;11.886;2023-05-24T10:47:13;96078.16;;;17.16;40.54
27425;BME280;15244;49.088;11.886;2023-05-24T10:52:16;96082.25;;;17.08;40.46
27425;BME280;15244;49.088;11.886;2023-05-24T10:57:21;96096.19;;;16.97;40.31
27425;BME280;15244;49.088;11.886;2023-05-24T11:02:26;96101.03;;;16.89;40.29
27425;BME280;15244;49.088;11.886;2023-05-24T11:07:29;96107.00;;;16.84;39.98
27425;BME280;15244;49.088;11.886;2023-05-24T11:12:33;96089.53;;;16.95;40.30
27425;BME280;15244;49.088;11.886;2023-05-24T11:23:18;96081.88;;;17.06;39.51
27425;BME280;15244;49.088;11.886;2023-05-24T11:28:20;96083.69;;;17.16;39.50
27425;BME280;15244;49.088;11.886;2023-05-24T11:33:23;96078.16;;;17.16;39.20
27425;BME280;15244;49.088;11.886;2023-05-24T11:38:24;96092.31;;;17.18;39.24
27425;BME280;15244;49.088;11.886;2023-05-24T11:43:29;96097.47;;;17.16;39.33
27425;BME280;15244;49.088;11.886;2023-05-24T11:48:30;96086.69;;;17.25;39.30
27425;BME280;15244;49.088;11.886;2023-05-24T11:53:32;96082.56;;;17.37;39.39
27425;BME280;15244;49.088;11.886;2023-05-24T11:58:45;96081.91;;;17.53;39.39
27425;BME280;15244;49.088;11.886;2023-05-24T12:03:49;96061.88;;;17.49;38.71
27425;BME280;15244;49.088;11.886;2023-05-24T12:08:52;96083.81;;;17.32;39.10
27425;BME280;15244;49.088;11.886;2023-05-24T12:13:53;96075.19;;;17.30;38.87
27425;BME280;15244;49.088;11.886;2023-05-24T12:18:55;96063.50;;;17.46;39.32
27425;BME280;15244;49.088;11.886;2023-05-24T12:24:12;96071.56;;;17.37;38.70
27425;BME280;15244;49.088;11.886;2023-05-24T12:29:15;96073.88;;;17.39;38.33
27425;BME280;15244;49.088;11.886;2023-05-24T12:34:18;96082.69;;;17.53;38.94
27425;BME280;15244;49.088;11.886;2023-05-24T12:39:22;96073.81;;;17.66;38.46
27425;BME280;15244;49.088;11.886;2023-05-24T12:44:29;96065.78;;;17.75;38.35
27425;BME280;15244;49.088;11.886;2023-05-24T12:49:32;96066.38;;;17.86;38.49
27425;BME280;15244;49.088;11.886;2023-05-24T12:54:34;96075.22;;;17.74;37.99
27425;BME280;15244;49.088;11.886;2023-05-24T12:59:36;96065.25;;;17.60;38.03
27425;BME280;15244;49.088;11.886;2023-05-24T13:04:39;96053.38;;;17.63;38.13
27425;BME280;15244;49.088;11.886;2023-05-24T13:09:41;96062.22;;;17.74;38.00
27425;BME280;15244;49.088;11.886;2023-05-24T13:14:42;96066.91;;;17.77;37.83
27425;BME280;15244;49.088;11.886;2023-05-24T13:19:44;96052.94;;;17.88;37.91
27425;BME280;15244;49.088;11.886;2023-05-24T13:24:47;96054.56;;;18.06;37.43
27425;BME280;15244;49.088;11.886;2023-05-24T13:29:49;96044.03;;;18.01;37.57
27425;BME280;15244;49.088;11.886;2023-05-24T13:35:01;96033.91;;;17.94;37.70
27425;BME280;15244;49.088;11.886;2023-05-24T13:40:07;96046.28;;;18.06;37.65
27425;BME280;15244;49.088;11.886;2023-05-24T13:45:10;96024.50;;;18.11;37.58
27425;BME280;15244;49.088;11.886;2023-05-24T13:50:11;96031.28;;;18.27;37.62
27425;BME280;15244;49.088;11.886;2023-05-24T13:55:13;96039.88;;;18.49;37.83
27425;BME280;15244;49.088;11.886;2023-05-24T14:00:15;96035.88;;;18.70;37.32
27425;BME280;15244;49.088;11.886;2023-05-24T14:05:18;96035.22;;;18.82;37.29
27425;BME280;15244;49.088;11.886;2023-05-24T14:10:28;96034.72;;;18.87;36.60
27425;BME280;15244;49.088;11.886;2023-05-24T14:15:30;96041.72;;;18.92;36.87
27425;BME280;15244;49.088;11.886;2023-05-24T14:20:35;96044.63;;;19.01;36.72
27425;BME280;15244;49.088;11.886;2023-05-24T14:25:38;96035.31;;;18.95;36.72
27425;BME280;15244;49.088;11.886;2023-05-24T14:30:41;96047.31;;;18.88;36.63
27425;BME280;15244;49.088;11.886;2023-05-24T14:35:43;96048.69;;;18.80;36.28
27425;BME280;15244;49.088;11.886;2023-05-24T14:40:45;96041.88;;;18.84;36.66
27425;BME280;15244;49.088;11.886;2023-05-24T14:45:49;96032.91;;;18.97;36.52
27425;BME280;15244;49.088;11.886;2023-05-24T14:50:51;96039.38;;;19.07;36.07
27425;BME280;15244;49.088;11.886;2023-05-24T14:55:53;96046.28;;;19.15;35.99
27425;BME280;15244;49.088;11.886;2023-05-24T15:00:55;96054.41;;;19.22;35.79
27425;BME280;15244;49.088;11.886;2023-05-24T15:05:57;96049.13;;;19.27;35.49
27425;BME280;15244;49.088;11.886;2023-05-24T15:10:59;96047.94;;;19.12;35.22
27425;BME280;15244;49.088;11.886;2023-05-24T15:16:01;96041.97;;;19.14;35.58
27425;BME280;15244;49.088;11.886;2023-05-24T15:21:03;96035.91;;;19.19;35.46
27425;BME280;15244;49.088;11.886;2023-05-24T15:26:04;96034.38;;;19.18;35.02
27425;BME280;15244;49.088;11.886;2023-05-24T15:31:06;96040.31;;;19.16;35.05
27425;BME280;15244;49.088;11.886;2023-05-24T15:36:08;96032.44;;;19.31;35.44
27425;BME280;15244;49.088;11.886;2023-05-24T15:41:14;96024.41;;;19.53;35.67
27425;BME280;15244;49.088;11.886;2023-05-24T15:46:16;96031.81;;;19.73;35.31
27425;BME280;15244;49.088;11.886;2023-05-24T15:51:20;96030.13;;;19.91;35.21
27425;BME280;15244;49.088;11.886;2023-05-24T15:56:42;96026.41;;;20.11;34.72
27425;BME280;15244;49.088;11.886;2023-05-24T16:01:43;96026.69;;;20.29;34.62
27425;BME280;15244;49.088;11.886;2023-05-24T16:06:45;96028.03;;;20.50;34.17
27425;BME280;15244;49.088;11.886;2023-05-24T16:11:47;96024.41;;;20.53;33.08
27425;BME280;15244;49.088;11.886;2023-05-24T16:16:49;96031.13;;;20.52;32.60
27425;BME280;15244;49.088;11.886;2023-05-24T16:21:51;96031.94;;;20.66;33.36
27425;BME280;15244;49.088;11.886;2023-05-24T16:26:52;96033.94;;;20.78;33.04
27425;BME280;15244;49.088;11.886;2023-05-24T16:31:54;96039.63;;;20.87;32.94
27425;BME280;15244;49.088;11.886;2023-05-24T16:36:56;96045.16;;;21.00;32.29
27425;BME280;15244;49.088;11.886;2023-05-24T16:41:58;96046.69;;;21.01;32.07
27425;BME280;15244;49.088;11.886;2023-05-24T16:47:02;96043.91;;;20.88;31.30
27425;BME280;15244;49.088;11.886;2023-05-24T16:52:03;96035.06;;;20.81;31.79
27425;BME280;15244;49.088;11.886;2023-05-24T16:57:05;96034.16;;;20.71;31.63
27425;BME280;15244;49.088;11.886;2023-05-24T17:02:07;96041.72;;;20.70;31.61
27425;BME280;15244;49.088;11.886;2023-05-24T17:07:09;96034.84;;;20.62;31.75
27425;BME280;15244;49.088;11.886;2023-05-24T17:12:10;96037.44;;;20.53;31.52
27425;BME280;15244;49.088;11.886;2023-05-24T17:17:12;96033.56;;;20.38;31.66
27425;BME280;15244;49.088;11.886;2023-05-24T17:22:13;96033.63;;;20.21;31.82
27425;BME280;15244;49.088;11.886;2023-05-24T17:27:15;96045.91;;;20.20;31.66
27425;BME280;15244;49.088;11.886;2023-05-24T17:32:22;96056.75;;;20.14;31.42
27425;BME280;15244;49.088;11.886;2023-05-24T17:37:24;96052.44;;;20.13;31.72
27425;BME280;15244;49.088;11.886;2023-05-24T17:42:25;96046.72;;;20.21;31.50
27425;BME280;15244;49.088;11.886;2023-05-24T17:47:27;96057.09;;;20.17;31.60
27425;BME280;15244;49.088;11.886;2023-05-24T17:52:29;96063.75;;;20.19;31.73
27425;BME280;15244;49.088;11.886;2023-05-24T17:57:30;96069.59;;;20.08;31.49
27425;BME280;15244;49.088;11.886;2023-05-24T18:02:32;96069.63;;;19.92;31.40
27425;BME280;15244;49.088;11.886;2023-05-24T18:07:33;96068.03;;;19.78;31.46
27425;BME280;15244;49.088;11.886;2023-05-24T18:12:36;96063.19;;;19.66;31.46
27425;BME280;15244;49.088;11.886;2023-05-24T18:17:39;96072.28;;;19.50;31.45
27425;BME280;15244;49.088;11.886;2023-05-24T18:22:41;96058.44;;;19.34;31.36
27425;BME280;15244;49.088;11.886;2023-05-24T18:27:42;96072.97;;;19.21;31.94
27425;BME280;15244;49.088;11.886;2023-05-24T18:32:44;96074.09;;;19.08;31.89
27425;BME280;15244;49.088;11.886;2023-05-24T18:38:04;96075.03;;;18.84;31.92
27425;BME280;15244;49.088;11.886;2023-05-24T18:43:05;96070.28;;;18.65;32.39
27425;BME280;15244;49.088;11.886;2023-05-24T18:48:07;96080.78;;;18.54;32.43
27425;BME280;15244;49.088;11.886;2023-05-24T18:53:09;96081.50;;;18.38;32.61
27425;BME280;15244;49.088;11.886;2023-05-24T18:58:10;96087.25;;;18.27;32.72
27425;BME280;15244;49.088;11.886;2023-05-24T19:03:12;96098.16;;;18.14;32.93
27425;BME280;15244;49.088;11.886;2023-05-24T19:08:14;96112.91;;;18.04;33.05
27425;BME280;15244;49.088;11.886;2023-05-24T19:13:16;96118.28;;;17.91;33.29
27425;BME280;15244;49.088;11.886;2023-05-24T19:18:18;96109.28;;;17.87;33.26
27425;BME280;15244;49.088;11.886;2023-05-24T19:23:20;96125.97;;;17.80;33.31
27425;BME280;15244;49.088;11.886;2023-05-24T19:28:21;96129.59;;;17.73;33.34
27425;BME280;15244;49.088;11.886;2023-05-24T19:33:24;96133.22;;;17.70;33.46
27425;BME280;15244;49.088;11.886;2023-05-24T19:38:26;96132.91;;;17.65;33.43
27425;BME280;15244;49.088;11.886;2023-05-24T19:43:27;96134.94;;;17.61;33.28
27425;BME280;15244;49.088;11.886;2023-05-24T19:48:29;96128.34;;;17.54;33.29
27425;BME280;15244;49.088;11.886;2023-05-24T19:53:30;96130.44;;;17.47;33.18
27425;BME280;15244;49.088;11.886;2023-05-24T19:58:32;96138.38;;;17.45;33.41
27425;BME280;15244;49.088;11.886;2023-05-24T20:03:34;96139.53;;;17.44;33.29
27425;BME280;15244;49.088;11.886;2023-05-24T20:08:35;96145.50;;;17.42;33.26
27425;BME280;15244;49.088;11.886;2023-05-24T20:13:37;96147.88;;;17.40;33.13
27425;BME280;15244;49.088;11.886;2023-05-24T20:18:39;96151.47;;;17.37;33.52
27425;BME280;15244;49.088;11.886;2023-05-24T20:23:40;96160.16;;;17.36;33.33
27425;BME280;15244;49.088;11.886;2023-05-24T20:28:42;96155.09;;;17.30;33.48
27425;BME280;15244;49.088;11.886;2023-05-24T20:33:43;96151.69;;;17.23;33.50
27425;BME280;15244;49.088;11.886;2023-05-24T20:38:45;96150.25;;;17.15;33.57
27425;BME280;15244;49.088;11.886;2023-05-24T20:43:47;96150.72;;;17.09;33.99
27425;BME280;15244;49.088;11.886;2023-05-24T20:48:51;96146.00;;;17.06;33.99
27425;BME280;15244;49.088;11.886;2023-05-24T20:53:54;96148.41;;;17.04;34.00
27425;BME280;15244;49.088;11.886;2023-05-24T20:58:56;96145.75;;;16.97;34.17
27425;BME280;15244;49.088;11.886;2023-05-24T21:04:00;96139.94;;;16.92;34.25
27425;BME280;15244;49.088;11.886;2023-05-24T21:09:02;96153.03;;;16.84;34.26
27425;BME280;15244;49.088;11.886;2023-05-24T21:14:04;96163.34;;;16.76;34.50
27425;BME280;15244;49.088;11.886;2023-05-24T21:19:06;96165.34;;;16.72;34.56
27425;BME280;15244;49.088;11.886;2023-05-24T21:24:08;96170.47;;;16.70;35.03
27425;BME280;15244;49.088;11.886;2023-05-24T21:29:11;96177.19;;;16.69;35.04
27425;BME280;15244;49.088;11.886;2023-05-24T21:34:13;96177.97;;;16.69;35.07
27425;BME280;15244;49.088;11.886;2023-05-24T21:39:15;96179.16;;;16.68;35.19
27425;BME280;15244;49.088;11.886;2023-05-24T21:44:16;96177.97;;;16.66;35.22
27425;BME280;15244;49.088;11.886;2023-05-24T21:49:18;96187.44;;;16.65;35.58
27425;BME280;15244;49.088;11.886;2023-05-24T21:54:22;96188.69;;;16.60;35.48
27425;BME280;15244;49.088;11.886;2023-05-24T21:59:24;96191.88;;;16.55;35.63
27425;BME280;15244;49.088;11.886;2023-05-24T22:04:25;96194.25;;;16.53;35.97
27425;BME280;15244;49.088;11.886;2023-05-24T22:09:27;96199.41;;;16.51;35.85
27425;BME280;15244;49.088;11.886;2023-05-24T22:14:29;96201.03;;;16.49;36.10
27425;BME280;15244;49.088;11.886;2023-05-24T22:19:31;96201.81;;;16.45;35.97
27425;BME280;15244;49.088;11.886;2023-05-24T22:24:39;96196.75;;;16.40;36.31
27425;BME280;15244;49.088;11.886;2023-05-24T22:29:42;96194.84;;;16.37;36.28
27425;BME280;15244;49.088;11.886;2023-05-24T22:34:44;96197.66;;;16.34;36.31
27425;BME280;15244;49.088;11.886;2023-05-24T22:39:46;96196.88;;;16.30;36.40
27425;BME280;15244;49.088;11.886;2023-05-24T22:44:48;96192.97;;;16.27;36.56
27425;BME280;15244;49.088;11.886;2023-05-24T22:49:51;96199.72;;;16.22;36.66
27425;BME280;15244;49.088;11.886;2023-05-24T22:54:54;96197.78;;;16.19;36.71
27425;BME280;15244;49.088;11.886;2023-05-24T22:59:56;96203.72;;;16.14;36.74
27425;BME280;15244;49.088;11.886;2023-05-24T23:04:58;96212.81;;;16.11;36.87
27425;BME280;15244;49.088;11.886;2023-05-24T23:10:01;96214.00;;;16.07;37.04
27425;BME280;15244;49.088;11.886;2023-05-24T23:15:05;96203.06;;;16.03;37.18
27425;BME280;15244;49.088;11.886;2023-05-24T23:20:08;96207.75;;;16.02;37.20
27425;BME280;15244;49.088;11.886;2023-05-24T23:25:15;96210.94;;;15.97;37.32
27425;BME280;15244;49.088;11.886;2023-05-24T23:30:17;96210.22;;;15.93;37.35
27425;BME280;15244;49.088;11.886;2023-05-24T23:35:20;96208.69;;;15.89;37.46
27425;BME280;15244;49.088;11.886;2023-05-24T23:40:22;96215.41;;;15.84;37.69
27425;BME280;15244;49.088;11.886;2023-05-24T23:45:27;96215.41;;;15.84;37.80
27425;BME280;15244;49.088;11.886;2023-05-24T23:50:29;96204.81;;;15.82;37.67
27425;BME280;15244;49.088;11.886;2023-05-24T23:55:43;96204.00;;;15.82;37.86
